createdAt,value
2022-09-17T00:01:35.275Z,3.43
2022-09-17T00:04:23.272Z,3.53
2022-09-17T00:07:11.029Z,2.77
2022-09-17T00:09:58.818Z,2.87
2022-09-17T00:12:46.884Z,3.07
2022-09-17T00:15:41.760Z,3.07
2022-09-17T00:18:29.314Z,3.37
2022-09-17T00:21:17.984Z,2.53
2022-09-17T00:24:07.378Z,2.40
2022-09-17T00:26:54.866Z,2.47
2022-09-17T00:29:43.090Z,2.60
2022-09-17T00:32:33.745Z,2.30
2022-09-17T00:35:21.641Z,2.37
2022-09-17T00:38:09.357Z,2.60
2022-09-17T00:40:57.294Z,1.90
2022-09-17T00:43:46.796Z,2.38
2022-09-17T00:46:39.224Z,2.20
2022-09-17T00:49:31.473Z,2.40
2022-09-17T00:52:24.905Z,2.17
2022-09-17T00:55:17.816Z,1.90
2022-09-17T00:58:09.331Z,2.00
2022-09-17T01:00:57.286Z,2.10
2022-09-17T01:03:45.583Z,1.77
2022-09-17T01:06:38.360Z,1.63
2022-09-17T01:09:32.908Z,1.73
2022-09-17T01:12:39.441Z,1.70
2022-09-17T01:15:36.108Z,1.80
2022-09-17T01:18:35.440Z,2.03
2022-09-17T01:21:43.044Z,1.47
2022-09-17T01:24:50.112Z,1.60
2022-09-17T01:28:07.610Z,1.47
2022-09-17T01:31:24.062Z,1.70
2022-09-17T01:34:21.393Z,1.63
2022-09-17T01:37:15.993Z,1.40
2022-09-17T01:40:08.804Z,1.45
2022-09-17T01:43:01.652Z,1.40
2022-09-17T01:45:53.129Z,1.38
2022-09-17T01:48:45.487Z,1.20
2022-09-17T01:51:38.773Z,1.30
2022-09-17T01:54:29.965Z,1.45
2022-09-17T01:57:24.353Z,2.00
2022-09-17T02:00:16.071Z,1.48
2022-09-17T02:03:08.158Z,1.35
2022-09-17T02:06:02.278Z,1.58
2022-09-17T02:08:55.042Z,1.63
2022-09-17T02:11:44.465Z,1.30
2022-09-17T02:14:37.648Z,1.30
2022-09-17T02:17:29.584Z,1.25
2022-09-17T02:20:22.804Z,1.58
2022-09-17T02:23:15.679Z,1.60
2022-09-17T02:26:08.643Z,1.50
2022-09-17T02:29:00.346Z,1.55
2022-09-17T02:31:48.256Z,1.27
2022-09-17T02:34:36.950Z,1.40
2022-09-17T02:37:24.703Z,1.33
2022-09-17T02:40:15.508Z,1.63
2022-09-17T02:43:12.062Z,1.60
2022-09-17T02:46:13.487Z,1.70
2022-09-17T02:49:36.179Z,1.45
2022-09-17T02:52:40.332Z,1.63
2022-09-17T02:55:37.486Z,1.45
2022-09-17T02:58:30.947Z,1.60
2022-09-17T03:01:26.676Z,1.50
2022-09-17T03:04:17.870Z,1.70
2022-09-17T03:07:09.080Z,1.42
2022-09-17T03:09:56.792Z,1.50
2022-09-17T03:12:46.140Z,1.50
2022-09-17T03:15:34.029Z,1.50
2022-09-17T03:18:21.845Z,1.25
2022-09-17T03:21:10.592Z,1.95
2022-09-17T03:24:00.397Z,1.60
2022-09-17T03:26:49.436Z,2.10
2022-09-17T03:29:39.018Z,3.30
2022-09-17T03:32:27.476Z,2.15
2022-09-17T03:35:15.862Z,2.30
2022-09-17T03:38:03.405Z,3.10
2022-09-17T03:40:59.711Z,2.95
2022-09-17T03:43:47.204Z,3.13
2022-09-17T03:46:36.588Z,2.60
2022-09-17T03:49:25.063Z,1.80
2022-09-17T03:52:12.487Z,3.78
2022-09-17T03:55:00.229Z,3.05
2022-09-17T03:57:48.224Z,3.55
2022-09-17T04:00:37.606Z,2.40
2022-09-17T04:03:27.456Z,3.42
2022-09-17T04:06:15.221Z,2.17
2022-09-17T04:09:04.805Z,1.85
2022-09-17T04:11:52.762Z,2.42
2022-09-17T04:14:40.924Z,3.33
2022-09-17T04:17:29.174Z,2.25
2022-09-17T04:20:18.627Z,2.22
2022-09-17T04:23:07.187Z,1.45
2022-09-17T04:25:55.213Z,2.05
2022-09-17T04:28:43.154Z,1.50
2022-09-17T04:31:31.176Z,2.10
2022-09-17T04:34:18.968Z,2.63
2022-09-17T04:37:08.039Z,7.80
2022-09-17T04:39:55.883Z,5.95
2022-09-17T04:42:43.491Z,2.70
2022-09-17T04:45:33.502Z,2.63
2022-09-17T04:48:21.215Z,6.03
2022-09-17T04:51:08.835Z,2.75
2022-09-17T04:53:57.935Z,2.45
2022-09-17T04:56:45.631Z,1.98
2022-09-17T04:59:33.134Z,2.08
2022-09-17T05:02:20.807Z,1.65
2022-09-17T05:05:09.125Z,1.60
2022-09-17T05:07:56.682Z,2.50
2022-09-17T05:10:46.229Z,1.70
2022-09-17T05:13:33.894Z,1.65
2022-09-17T05:16:21.671Z,1.70
2022-09-17T05:19:09.502Z,1.98
2022-09-17T05:21:57.208Z,1.75
2022-09-17T05:24:45.368Z,1.75
2022-09-17T05:27:34.804Z,2.00
2022-09-17T05:30:22.506Z,1.95
2022-09-17T05:33:11.108Z,1.80
2022-09-17T05:36:01.493Z,2.25
2022-09-17T05:38:49.079Z,2.40
2022-09-17T05:41:36.956Z,2.33
2022-09-17T05:44:26.947Z,2.47
2022-09-17T05:47:14.619Z,2.88
2022-09-17T05:50:02.538Z,3.20
2022-09-17T05:52:50.280Z,2.72
2022-09-17T05:55:38.131Z,3.13
2022-09-17T05:58:26.009Z,3.05
2022-09-17T06:01:18.646Z,3.50
2022-09-17T06:04:06.544Z,4.93
2022-09-17T06:06:54.472Z,3.15
2022-09-17T06:09:41.868Z,2.70
2022-09-17T06:12:29.371Z,4.53
2022-09-17T06:15:17.376Z,4.82
2022-09-17T06:18:06.545Z,3.13
2022-09-17T06:20:55.270Z,3.05
2022-09-17T06:23:43.655Z,4.57
2022-09-17T06:26:30.967Z,3.30
2022-09-17T06:29:18.609Z,4.30
2022-09-17T06:32:09.197Z,3.42
2022-09-17T06:34:58.624Z,3.25
2022-09-17T06:37:46.097Z,3.60
2022-09-17T06:40:33.967Z,3.30
2022-09-17T06:43:21.736Z,3.38
2022-09-17T06:46:10.662Z,2.72
2022-09-17T06:48:58.978Z,4.10
2022-09-17T06:51:48.418Z,3.20
2022-09-17T06:54:36.229Z,3.38
2022-09-17T06:57:24.276Z,3.92
2022-09-17T07:00:13.483Z,3.05
2022-09-17T07:03:02.436Z,2.88
2022-09-17T07:05:50.221Z,2.72
2022-09-17T07:08:39.799Z,3.33
2022-09-17T07:11:27.479Z,2.92
2022-09-17T07:14:15.260Z,2.35
2022-09-17T07:17:03.245Z,2.60
2022-09-17T07:19:51.121Z,2.70
2022-09-17T07:22:39.336Z,2.55
2022-09-17T07:25:28.649Z,2.90
2022-09-17T07:28:16.418Z,2.95
2022-09-17T07:31:06.486Z,3.10
2022-09-17T07:33:54.123Z,2.53
2022-09-17T07:36:42.141Z,2.97
2022-09-17T07:39:30.180Z,3.58
2022-09-17T07:42:19.442Z,2.65
2022-09-17T07:45:08.023Z,2.38
2022-09-17T07:47:55.777Z,2.55
2022-09-17T07:50:43.877Z,3.00
2022-09-17T07:53:31.611Z,3.13
2022-09-17T07:56:19.369Z,3.20
2022-09-17T07:59:10.173Z,3.00
2022-09-17T08:01:58.141Z,3.40
2022-09-17T08:04:45.794Z,3.40
2022-09-17T08:07:34.090Z,3.05
2022-09-17T08:10:23.175Z,3.33
2022-09-17T08:13:11.049Z,2.80
2022-09-17T08:16:04.016Z,3.10
2022-09-17T08:18:56.527Z,3.03
2022-09-17T08:21:44.041Z,3.00
2022-09-17T08:24:32.218Z,3.13
2022-09-17T08:27:19.935Z,3.42
2022-09-17T08:30:09.126Z,3.15
2022-09-17T08:32:59.791Z,2.85
2022-09-17T08:35:53.339Z,3.30
2022-09-17T08:38:41.947Z,3.25
2022-09-17T08:41:39.146Z,3.10
2022-09-17T08:44:31.712Z,3.15
2022-09-17T08:47:25.813Z,4.20
2022-09-17T08:50:17.373Z,3.97
2022-09-17T08:53:33.088Z,3.10
2022-09-17T08:56:21.423Z,3.20
2022-09-17T08:59:21.626Z,3.75
2022-09-17T09:02:22.311Z,3.30
2022-09-17T09:05:17.787Z,3.70
2022-09-17T09:08:12.695Z,3.47
2022-09-17T09:11:02.843Z,3.90
2022-09-17T09:13:54.961Z,2.75
2022-09-17T09:16:46.003Z,3.33
2022-09-17T09:19:40.159Z,3.85
2022-09-17T09:22:43.552Z,3.92
2022-09-17T09:25:38.221Z,3.92
2022-09-17T09:28:38.980Z,4.18
2022-09-17T09:31:48.593Z,3.67
2022-09-17T09:34:37.233Z,3.85
2022-09-17T09:37:28.481Z,4.05
2022-09-17T09:40:29.751Z,4.75
2022-09-17T09:43:21.384Z,4.43
2022-09-17T09:46:24.999Z,4.95
2022-09-17T09:49:23.877Z,7.95
2022-09-17T09:52:25.038Z,5.38
2022-09-17T09:55:29.852Z,5.38
2022-09-17T09:58:25.968Z,4.93
2022-09-17T10:01:17.010Z,4.68
2022-09-17T10:04:18.238Z,6.07
2022-09-17T10:07:07.557Z,5.35
2022-09-17T10:10:10.051Z,4.93
2022-09-17T10:13:14.991Z,5.60
2022-09-17T10:16:18.115Z,4.80
2022-09-17T10:19:15.224Z,4.20
2022-09-17T10:22:29.720Z,4.13
2022-09-17T10:25:28.860Z,4.13
2022-09-17T10:28:35.273Z,4.00
2022-09-17T10:31:24.628Z,3.60
2022-09-17T10:34:21.690Z,3.60
2022-09-17T10:37:35.076Z,3.33
2022-09-17T10:40:31.556Z,3.33
2022-09-17T10:43:23.888Z,3.00
2022-09-17T10:46:16.965Z,3.33
2022-09-17T10:49:12.396Z,3.92
2022-09-17T10:52:16.009Z,4.28
2022-09-17T10:55:23.529Z,3.97
2022-09-17T10:58:23.757Z,4.20
2022-09-17T11:01:27.795Z,3.40
2022-09-17T11:04:35.597Z,4.55
2022-09-17T11:07:35.521Z,3.55
2022-09-17T11:10:30.330Z,4.18
2022-09-17T11:13:27.112Z,3.53
2022-09-17T11:16:33.978Z,3.22
2022-09-17T11:19:32.731Z,2.53
2022-09-17T11:22:26.958Z,2.63
2022-09-17T11:25:27.681Z,2.80
2022-09-17T11:28:35.080Z,2.45
2022-09-17T11:31:33.795Z,2.40
2022-09-17T11:34:30.728Z,2.20
2022-09-17T11:37:24.301Z,2.30
2022-09-17T11:40:17.997Z,1.90
2022-09-17T11:43:15.622Z,2.60
2022-09-17T11:46:11.848Z,1.80
2022-09-17T11:49:06.038Z,1.60
2022-09-17T11:52:01.261Z,2.00
2022-09-17T11:54:54.102Z,1.55
2022-09-17T11:57:44.737Z,1.70
2022-09-17T12:00:36.788Z,1.42
2022-09-17T12:03:32.057Z,1.55
2022-09-17T12:06:29.875Z,1.50
2022-09-17T12:09:22.314Z,1.20
2022-09-17T12:12:38.048Z,1.50
2022-09-17T12:15:28.555Z,1.20
2022-09-17T12:18:32.286Z,1.25
2022-09-17T12:21:27.165Z,1.38
2022-09-17T12:24:22.234Z,1.60
2022-09-17T12:27:19.368Z,1.20
2022-09-17T12:30:22.621Z,1.58
2022-09-17T12:33:25.283Z,1.50
2022-09-17T12:36:39.030Z,1.42
2022-09-17T12:39:54.161Z,1.70
2022-09-17T12:42:57.811Z,1.52
2022-09-17T12:46:08.541Z,1.20
2022-09-17T12:49:15.961Z,1.48
2022-09-17T12:52:08.274Z,1.30
2022-09-17T12:55:22.254Z,1.30
2022-09-17T12:58:20.647Z,1.25
2022-09-17T13:01:14.478Z,1.27
2022-09-17T13:04:18.011Z,1.25
2022-09-17T13:07:43.167Z,1.20
2022-09-17T13:11:07.187Z,1.05
2022-09-17T13:14:02.778Z,1.08
2022-09-17T13:16:56.934Z,1.23
2022-09-17T13:19:52.970Z,0.65
2022-09-17T13:22:48.980Z,0.85
2022-09-17T13:25:52.164Z,0.82
2022-09-17T13:28:47.587Z,0.80
2022-09-17T13:31:51.496Z,1.10
2022-09-17T13:34:39.416Z,0.90
2022-09-17T13:37:28.353Z,0.80
2022-09-17T13:40:24.571Z,1.30
2022-09-17T13:43:15.498Z,0.95
2022-09-17T13:46:23.777Z,1.13
2022-09-17T13:49:16.976Z,0.88
2022-09-17T13:52:09.001Z,0.90
2022-09-17T13:55:00.072Z,1.00
2022-09-17T13:57:51.922Z,0.70
2022-09-17T14:00:54.537Z,0.80
2022-09-17T14:03:54.545Z,0.90
2022-09-17T14:06:53.581Z,1.40
2022-09-17T14:09:53.782Z,1.15
2022-09-17T14:13:30.413Z,1.00
2022-09-17T14:16:47.762Z,0.75
2022-09-17T14:19:51.091Z,0.77
2022-09-17T14:22:40.083Z,0.80
2022-09-17T14:25:40.990Z,0.80
2022-09-17T14:28:35.316Z,0.70
2022-09-17T14:31:32.078Z,0.95
2022-09-17T14:34:23.484Z,0.90
2022-09-17T14:37:16.092Z,1.05
2022-09-17T14:40:10.447Z,1.05
2022-09-17T14:42:59.499Z,0.82
2022-09-17T14:45:50.932Z,1.00
2022-09-17T14:48:40.460Z,1.13
2022-09-17T14:51:30.271Z,1.58
2022-09-17T14:54:21.123Z,1.30
2022-09-17T14:57:25.148Z,1.30
2022-09-17T15:00:21.827Z,1.20
2022-09-17T15:03:23.543Z,1.45
2022-09-17T15:06:22.546Z,1.38
2022-09-17T15:09:16.875Z,1.13
2022-09-17T15:12:06.240Z,1.10
2022-09-17T15:14:55.463Z,0.93
2022-09-17T15:17:43.967Z,1.45
2022-09-17T15:20:33.119Z,1.52
2022-09-17T15:23:26.051Z,1.80
2022-09-17T15:26:14.982Z,1.50
2022-09-17T15:29:04.972Z,2.00
2022-09-17T15:31:52.556Z,2.22
2022-09-17T15:34:40.210Z,2.30
2022-09-17T15:37:28.724Z,2.13
2022-09-17T15:40:29.888Z,2.38
2022-09-17T15:43:22.674Z,2.50
2022-09-17T15:46:24.325Z,2.25
2022-09-17T15:49:35.021Z,2.10
2022-09-17T15:52:32.927Z,1.30
2022-09-17T15:55:34.334Z,1.13
2022-09-17T15:58:25.531Z,0.73
2022-09-17T16:01:47.587Z,0.80
2022-09-17T16:04:36.376Z,0.80
2022-09-17T16:07:31.748Z,0.90
2022-09-17T16:10:20.039Z,1.10
2022-09-17T16:13:09.309Z,0.93
2022-09-17T16:15:57.776Z,1.02
2022-09-17T16:18:45.971Z,1.00
2022-09-17T16:21:33.678Z,1.00
2022-09-17T16:24:21.563Z,1.05
2022-09-17T16:27:14.481Z,1.10
2022-09-17T16:30:06.676Z,1.40
2022-09-17T16:32:54.964Z,1.20
2022-09-17T16:35:43.626Z,1.10
2022-09-17T16:38:31.579Z,1.35
2022-09-17T16:41:19.451Z,1.25
2022-09-17T16:44:07.878Z,1.48
2022-09-17T16:46:57.605Z,1.70
2022-09-17T16:49:45.605Z,1.30
2022-09-17T16:52:33.406Z,1.45
2022-09-17T16:55:21.817Z,1.42
2022-09-17T16:58:09.456Z,1.60
2022-09-17T17:00:57.631Z,1.33
2022-09-17T17:03:49.241Z,1.05
2022-09-17T17:06:36.762Z,1.45
2022-09-17T17:09:24.639Z,1.55
2022-09-17T17:12:13.115Z,1.52
2022-09-17T17:15:02.433Z,1.45
2022-09-17T17:17:50.220Z,1.77
2022-09-17T17:20:39.247Z,1.40
2022-09-17T17:23:27.103Z,1.60
2022-09-17T17:26:15.058Z,1.35
2022-09-17T17:29:02.999Z,1.60
2022-09-17T17:31:51.192Z,1.48
2022-09-17T17:34:39.084Z,1.40
2022-09-17T17:37:28.613Z,1.35
2022-09-17T17:40:22.876Z,1.65
2022-09-17T17:43:10.932Z,1.40
2022-09-17T17:45:58.648Z,1.70
2022-09-17T17:48:46.928Z,1.70
2022-09-17T17:51:35.396Z,1.30
2022-09-17T17:54:25.297Z,1.60
2022-09-17T17:57:13.420Z,1.58
2022-09-17T18:00:01.322Z,1.95
2022-09-17T18:02:50.769Z,1.88
2022-09-17T18:05:40.764Z,1.80
2022-09-17T18:08:28.653Z,1.50
2022-09-17T18:11:17.904Z,1.52
2022-09-17T18:14:05.592Z,1.60
2022-09-17T18:16:53.345Z,1.70
2022-09-17T18:19:41.128Z,2.17
2022-09-17T18:22:28.882Z,1.65
2022-09-17T18:25:16.642Z,2.10
2022-09-17T18:28:05.916Z,1.83
2022-09-17T18:30:54.109Z,2.90
2022-09-17T18:33:42.282Z,2.92
2022-09-17T18:36:31.654Z,1.73
2022-09-17T18:39:56.977Z,1.50
2022-09-17T18:42:28.856Z,1.30
2022-09-17T18:45:18.020Z,1.80
2022-09-17T18:48:07.310Z,1.30
2022-09-17T18:50:59.661Z,1.35
2022-09-17T18:53:51.337Z,1.83
2022-09-17T18:56:40.291Z,1.77
2022-09-17T18:59:28.216Z,1.42
2022-09-17T19:02:17.628Z,1.55
2022-09-17T19:05:05.764Z,1.30
2022-09-17T19:07:54.027Z,1.60
2022-09-17T19:10:42.293Z,1.60
2022-09-17T19:13:35.916Z,2.00
2022-09-17T19:16:23.622Z,1.73
2022-09-17T19:19:12.923Z,1.60
2022-09-17T19:22:00.892Z,1.77
2022-09-17T19:24:48.446Z,2.17
2022-09-17T19:27:36.496Z,2.20
2022-09-17T19:30:24.360Z,2.40
2022-09-17T19:33:11.926Z,3.47
2022-09-17T19:36:02.944Z,2.90
2022-09-17T19:38:50.988Z,2.75
2022-09-17T19:41:38.915Z,2.67
2022-09-17T19:44:26.734Z,2.92
2022-09-17T19:47:14.492Z,2.63
2022-09-17T19:50:02.557Z,2.55
2022-09-17T19:52:51.878Z,2.30
2022-09-17T19:55:39.725Z,2.70
2022-09-17T19:58:27.799Z,2.65
2022-09-17T20:01:15.849Z,2.65
2022-09-17T20:04:04.512Z,2.60
2022-09-17T20:06:52.336Z,2.70
2022-09-17T20:09:41.642Z,2.83
2022-09-17T20:12:29.496Z,2.30
2022-09-17T20:15:17.522Z,2.30
2022-09-17T20:18:05.750Z,2.03
2022-09-17T20:20:53.969Z,2.40
2022-09-17T20:23:41.813Z,3.00
2022-09-17T20:26:31.469Z,2.83
2022-09-17T20:29:19.392Z,2.80
2022-09-17T20:32:06.870Z,3.58
2022-09-17T20:34:54.569Z,2.88
2022-09-17T20:38:39.251Z,2.70
2022-09-17T20:40:50.959Z,3.45
2022-09-17T20:43:42.311Z,3.40
2022-09-17T20:46:30.437Z,2.97
2022-09-17T20:49:18.280Z,2.70
2022-09-17T20:52:05.958Z,3.05
2022-09-17T20:54:53.594Z,3.30
2022-09-17T20:57:41.745Z,3.42
2022-09-17T21:00:31.102Z,3.28
2022-09-17T21:03:20.376Z,3.13
2022-09-17T21:06:08.602Z,3.70
2022-09-17T21:08:56.792Z,3.28
2022-09-17T21:11:45.543Z,3.58
2022-09-17T21:14:32.996Z,3.47
2022-09-17T21:17:21.984Z,3.85
2022-09-17T21:20:10.224Z,3.33
2022-09-17T21:22:58.352Z,3.38
2022-09-17T21:25:46.582Z,3.63
2022-09-17T21:28:36.988Z,3.25
2022-09-17T21:31:31.758Z,3.53
2022-09-17T21:34:21.392Z,3.28
2022-09-17T21:37:09.044Z,3.20
2022-09-17T21:39:57.805Z,4.53
2022-09-17T21:42:45.537Z,3.17
2022-09-17T21:45:33.205Z,2.88
2022-09-17T21:48:20.881Z,3.10
2022-09-17T21:51:11.766Z,3.85
2022-09-17T21:54:01.961Z,3.42
2022-09-17T21:56:49.977Z,3.22
2022-09-17T21:59:37.798Z,3.13
2022-09-17T22:02:26.698Z,3.28
2022-09-17T22:05:16.244Z,3.58
2022-09-17T22:08:05.864Z,3.15
2022-09-17T22:10:53.493Z,3.63
2022-09-17T22:13:41.620Z,3.40
2022-09-17T22:16:30.831Z,2.97
2022-09-17T22:19:19.968Z,3.25
2022-09-17T22:22:07.931Z,2.65
2022-09-17T22:24:57.089Z,2.85
2022-09-17T22:28:03.966Z,3.15
2022-09-17T22:30:52.840Z,3.00
2022-09-17T22:33:42.507Z,3.10
2022-09-17T22:36:30.390Z,2.95
2022-09-17T22:39:19.556Z,3.30
2022-09-17T22:42:13.394Z,2.90
2022-09-17T22:45:01.998Z,2.80
2022-09-17T22:47:49.519Z,3.00
2022-09-17T22:50:37.476Z,2.47
2022-09-17T22:53:25.150Z,2.60
2022-09-17T22:56:16.198Z,2.80
2022-09-17T22:59:05.752Z,2.50
2022-09-17T23:01:53.394Z,2.30
2022-09-17T23:04:41.311Z,2.90
2022-09-17T23:07:29.181Z,3.20
2022-09-17T23:10:16.907Z,2.97
2022-09-17T23:13:04.581Z,2.97
2022-09-17T23:15:54.067Z,3.47
2022-09-17T23:18:42.073Z,2.37
2022-09-17T23:21:29.896Z,2.90
2022-09-17T23:24:20.426Z,2.97
2022-09-17T23:27:08.219Z,2.80
2022-09-17T23:29:56.264Z,3.00
2022-09-17T23:32:45.451Z,2.77
2022-09-17T23:35:34.774Z,2.47
2022-09-17T23:38:22.404Z,2.80
2022-09-17T23:41:14.808Z,2.63
2022-09-17T23:44:05.490Z,2.60
2022-09-17T23:46:53.707Z,2.27
2022-09-17T23:49:43.302Z,2.83
2022-09-17T23:52:31.277Z,2.47
2022-09-17T23:55:19.212Z,2.37
2022-09-17T23:58:07.990Z,2.47
